Time;durP1;ratioP1;P1;durP2;ratioP2;P2;SDS_P1;SDS_P2;PMS_P1;PMS_P2;Temp;Humidity;BMP_temperature;BMP_pressure;BME280_temperature;BME280_humidity;BME280_pressure;Samples;Min_cycle;Max_cycle;Signal;HPM_P1;HPM_P2
2024/01/01 00:01:30;;;;;;;5.32;2.20;;;17.70;76.30;;;;;;4904492;27;47451;-52
2024/01/01 00:03:56;;;;;;;4.78;2.10;;;17.70;76.30;;;;;;4896434;27;45715;-52
2024/01/01 00:06:25;;;;;;;4.03;2.08;;;17.70;76.30;;;;;;4900986;27;45683;-52
2024/01/01 00:08:57;;;;;;;4.03;2.05;;;17.70;76.30;;;;;;4911685;27;45203;-52
2024/01/01 00:11:36;;;;;;;3.95;2.03;;;17.70;75.60;;;;;;4911684;27;45419;-52
2024/01/01 00:14:05;;;;;;;3.60;2.10;;;17.70;76.30;;;;;;4890806;27;45296;-52
2024/01/01 00:16:44;;;;;;;4.63;2.30;;;17.70;76.40;;;;;;4899681;27;45465;-52
2024/01/01 00:19:12;;;;;;;3.92;2.30;;;17.70;76.30;;;;;;4899047;27;45464;-52
2024/01/01 00:21:39;;;;;;;6.55;2.20;;;17.70;76.30;;;;;;4900357;27;45767;-52
2024/01/01 00:24:06;;;;;;;6.57;2.50;;;17.70;76.30;;;;;;4895735;27;45518;-52
2024/01/01 00:26:35;;;;;;;2.85;1.92;;;17.70;76.40;;;;;;4912225;27;45276;-52
2024/01/01 00:29:30;;;;;;;4.55;2.25;;;17.70;76.30;;;;;;4936701;27;45557;-52
2024/01/01 00:32:09;;;;;;;3.08;2.20;;;17.70;76.30;;;;;;4901506;27;45194;-52
2024/01/01 00:34:47;;;;;;;6.00;2.30;;;17.70;75.60;;;;;;4908587;27;46488;-52
2024/01/01 00:37:25;;;;;;;5.18;2.25;;;17.70;76.30;;;;;;4895002;27;45680;-52
2024/01/01 00:40:23;;;;;;;4.88;2.53;;;17.70;75.10;;;;;;4901423;27;45374;-52
2024/01/01 00:43:05;;;;;;;5.93;2.22;;;17.70;76.30;;;;;;4901204;27;46484;-52
2024/01/01 00:45:32;;;;;;;4.82;2.42;;;17.70;75.40;;;;;;4897030;27;45453;-52
2024/01/01 00:48:16;;;;;;;3.80;2.08;;;17.70;75.70;;;;;;4930936;27;45262;-52
2024/01/01 00:50:43;;;;;;;3.92;2.10;;;17.70;75.30;;;;;;4918067;27;45244;-52
2024/01/01 00:53:11;;;;;;;4.07;2.28;;;17.80;76.40;;;;;;4896093;27;47060;-52
2024/01/01 00:55:48;;;;;;;3.80;2.58;;;17.80;76.30;;;;;;4903412;27;45444;-52
2024/01/01 00:58:42;;;;;;;5.20;2.20;;;17.80;75.50;;;;;;4935621;27;45026;-52
2024/01/01 01:01:35;;;;;;;4.65;2.08;;;17.80;75.20;;;;;;4908347;27;45327;-52
2024/01/01 01:04:02;;;;;;;3.97;1.83;;;17.80;75.00;;;;;;4907441;27;45259;-52
2024/01/01 01:06:31;;;;;;;3.55;2.00;;;17.80;75.40;;;;;;4889295;27;45510;-52
2024/01/01 01:08:58;;;;;;;4.43;1.98;;;17.80;74.50;;;;;;4901715;27;45556;-52
2024/01/01 01:11:53;;;;;;;5.18;2.30;;;17.80;74.30;;;;;;4901536;27;45326;-52
2024/01/01 01:14:58;;;;;;;3.63;1.85;;;17.80;74.50;;;;;;4910457;27;46448;-52
2024/01/01 01:17:49;;;;;;;3.42;1.73;;;17.80;74.60;;;;;;4894455;27;45616;-52
2024/01/01 01:22:56;;;;;;;5.97;1.70;;;17.70;74.10;;;;;;4899114;27;45431;-52
2024/01/01 01:25:39;;;;;;;3.47;1.80;;;17.70;74.50;;;;;;4903459;27;45252;-52
2024/01/01 01:28:25;;;;;;;5.38;1.90;;;17.70;75.30;;;;;;4919349;27;45244;-52
2024/01/01 01:31:02;;;;;;;4.13;1.80;;;17.70;75.20;;;;;;4895765;27;44962;-52
2024/01/01 01:33:32;;;;;;;3.13;1.67;;;17.80;74.80;;;;;;4891612;27;44941;-52
2024/01/01 01:36:17;;;;;;;5.38;1.70;;;17.80;75.50;;;;;;4891364;27;46100;-52
2024/01/01 01:38:44;;;;;;;3.13;1.77;;;17.70;75.70;;;;;;4894612;27;45755;-52
2024/01/01 01:41:25;;;;;;;2.45;1.48;;;17.80;75.10;;;;;;4910407;27;45363;-52
2024/01/01 01:44:13;;;;;;;4.38;1.80;;;17.80;75.00;;;;;;4895657;27;45218;-52
2024/01/01 01:46:53;;;;;;;4.05;1.80;;;17.80;74.90;;;;;;4949795;27;47272;-52
2024/01/01 01:49:57;;;;;;;3.65;1.92;;;17.70;74.40;;;;;;4921731;27;45125;-52
2024/01/01 01:52:39;;;;;;;4.43;1.50;;;17.80;74.70;;;;;;4912137;27;45393;-52
2024/01/01 01:55:08;;;;;;;4.00;1.60;;;17.80;74.20;;;;;;4916251;27;46190;-52
2024/01/01 01:57:36;;;;;;;2.70;1.48;;;17.80;74.00;;;;;;4898542;27;47194;-52
2024/01/01 02:00:04;;;;;;;3.10;1.33;;;17.80;73.80;;;;;;4911134;27;45499;-52
2024/01/01 02:03:03;;;;;;;2.90;1.50;;;17.80;73.80;;;;;;4911225;27;45243;-52
2024/01/01 02:05:32;;;;;;;2.83;1.45;;;17.80;73.50;;;;;;4918108;27;45472;-53
2024/01/01 02:11:01;;;;;;;3.92;1.52;;;17.80;73.20;;;;;;4891576;27;45392;-52
2024/01/01 02:14:33;;;;;;;3.28;1.38;;;17.80;73.80;;;;;;4916609;27;45340;-52
2024/01/01 02:17:31;;;;;;;3.67;1.55;;;17.80;74.00;;;;;;4893792;27;45303;-52
2024/01/01 02:20:19;;;;;;;3.05;1.40;;;17.80;74.70;;;;;;4922504;27;46920;-52
2024/01/01 02:22:46;;;;;;;2.90;1.35;;;17.80;73.30;;;;;;4909266;27;45396;-52
2024/01/01 02:25:16;;;;;;;3.55;1.35;;;17.80;73.20;;;;;;4903889;27;45584;-52
2024/01/01 02:27:44;;;;;;;5.03;1.42;;;17.80;72.20;;;;;;4895413;27;45587;-52
2024/01/01 02:30:14;;;;;;;3.45;1.40;;;17.80;71.90;;;;;;4905775;27;45843;-52
2024/01/01 02:32:45;;;;;;;2.47;1.27;;;17.80;72.10;;;;;;4901941;27;45655;-52
2024/01/01 02:35:21;;;;;;;2.72;1.20;;;17.80;72.10;;;;;;4904416;27;45713;-52
2024/01/01 02:37:51;;;;;;;2.95;1.30;;;17.80;72.20;;;;;;4895826;27;45419;-52
2024/01/01 02:40:19;;;;;;;3.38;1.17;;;17.80;72.30;;;;;;4918828;27;45742;-52
2024/01/01 02:43:15;;;;;;;3.47;1.30;;;17.80;72.00;;;;;;4929795;27;45625;-52
2024/01/01 02:45:42;;;;;;;4.22;1.30;;;17.80;71.50;;;;;;4918732;27;45458;-52
2024/01/01 02:48:09;;;;;;;2.33;0.90;;;17.80;72.00;;;;;;4909356;27;45239;-52
2024/01/01 02:50:38;;;;;;;2.05;1.02;;;17.80;72.10;;;;;;4913821;27;45535;-52
2024/01/01 02:53:10;;;;;;;4.05;1.30;;;17.80;72.30;;;;;;4907222;27;45615;-52
2024/01/01 02:59:04;;;;;;;2.65;1.13;;;17.80;72.60;;;;;;4871069;27;45498;-52
2024/01/01 03:01:53;;;;;;;2.08;1.10;;;17.80;72.60;;;;;;4913889;27;46054;-52
2024/01/01 03:04:20;;;;;;;3.78;1.00;;;17.80;71.70;;;;;;4895083;27;45601;-52
2024/01/01 03:07:05;;;;;;;2.78;0.93;;;17.70;70.80;;;;;;4919659;27;45113;-51
2024/01/01 03:09:57;;;;;;;5.25;1.50;;;17.80;70.70;;;;;;4919605;27;45389;-52
2024/01/01 03:12:27;;;;;;;3.70;0.90;;;17.80;71.00;;;;;;4920393;27;45934;-52
2024/01/01 03:15:23;;;;;;;3.83;1.17;;;17.80;71.20;;;;;;4909464;27;45411;-52
2024/01/01 03:18:00;;;;;;;3.05;0.95;;;17.80;71.80;;;;;;4916084;27;45354;-52
2024/01/01 03:20:31;;;;;;;2.67;1.00;;;17.80;71.40;;;;;;4905384;27;45153;-52
2024/01/01 03:23:16;;;;;;;2.67;1.00;;;17.80;71.90;;;;;;4917641;27;47057;-52
2024/01/01 03:25:56;;;;;;;3.15;1.08;;;17.80;71.70;;;;;;4882178;27;44966;-52
2024/01/01 03:28:23;;;;;;;6.07;1.20;;;17.80;71.70;;;;;;4894850;27;45696;-52
2024/01/01 03:31:05;;;;;;;3.92;1.10;;;17.80;71.60;;;;;;4895988;27;45395;-52
2024/01/01 03:33:53;;;;;;;3.22;1.08;;;17.80;71.70;;;;;;4909474;27;47277;-52
2024/01/01 03:36:30;;;;;;;2.42;0.85;;;17.80;71.70;;;;;;4888122;27;45522;-52
2024/01/01 03:39:00;;;;;;;3.65;0.93;;;17.80;71.40;;;;;;4910107;27;45200;-52
2024/01/01 03:41:39;;;;;;;2.42;1.00;;;17.80;71.60;;;;;;4897834;27;45375;-51
2024/01/01 03:44:06;;;;;;;4.72;1.10;;;17.80;71.00;;;;;;4897094;27;46041;-52
2024/01/01 03:46:46;;;;;;;2.42;0.90;;;17.80;71.30;;;;;;4905731;27;45423;-51
2024/01/01 03:49:13;;;;;;;2.75;0.90;;;17.80;71.50;;;;;;4898702;27;45364;-52
2024/01/01 03:52:01;;;;;;;3.38;0.95;;;17.80;71.50;;;;;;4923927;27;45912;-51
2024/01/01 03:54:42;;;;;;;3.53;1.23;;;17.80;70.70;;;;;;4879700;27;45630;-52
2024/01/01 03:57:10;;;;;;;5.00;1.10;;;17.80;69.90;;;;;;4883504;27;45444;-52
2024/01/01 03:59:37;;;;;;;6.47;1.33;;;17.80;71.40;;;;;;4908753;27;45534;-52
2024/01/01 04:02:06;;;;;;;3.75;1.00;;;17.80;69.90;;;;;;4916681;27;45394;-52
2024/01/01 04:04:59;;;;;;;3.92;1.20;;;17.80;70.20;;;;;;4923099;27;46769;-52
2024/01/01 04:07:42;;;;;;;3.63;0.93;;;17.70;70.40;;;;;;4942035;27;45439;-51
2024/01/01 04:10:42;;;;;;;2.75;0.93;;;17.70;70.50;;;;;;4929729;27;45381;-51
2024/01/01 04:15:50;;;;;;;4.07;1.30;;;17.80;70.70;;;;;;4884781;27;45651;-52
2024/01/01 04:18:18;;;;;;;1.58;0.73;;;17.80;70.50;;;;;;4898551;27;45535;-51
2024/01/01 04:20:55;;;;;;;5.40;0.98;;;17.80;70.30;;;;;;4895737;27;45320;-52
2024/01/01 04:23:57;;;;;;;3.10;1.05;;;17.80;70.50;;;;;;4906132;27;45369;-52
2024/01/01 04:26:30;;;;;;;4.50;1.52;;;17.80;70.30;;;;;;4901737;27;45314;-52
2024/01/01 04:28:57;;;;;;;4.43;0.95;;;17.80;70.60;;;;;;4907834;27;45060;-52
2024/01/01 04:32:01;;;;;;;4.35;1.02;;;17.80;70.30;;;;;;4926932;27;45967;-52
2024/01/01 04:34:32;;;;;;;1.75;0.80;;;17.80;70.30;;;;;;4902575;27;45603;-51
2024/01/01 04:37:09;;;;;;;2.33;1.02;;;17.90;70.30;;;;;;4883845;27;45930;-51
2024/01/01 04:39:49;;;;;;;4.55;1.05;;;17.80;70.50;;;;;;4902451;27;46061;-51
2024/01/01 04:42:17;;;;;;;1.98;1.10;;;17.80;70.10;;;;;;4898947;27;45594;-51
2024/01/01 04:45:15;;;;;;;3.72;1.25;;;17.80;70.40;;;;;;4905296;27;45511;-52
2024/01/01 04:47:55;;;;;;;3.88;0.85;;;17.80;70.40;;;;;;4904356;27;47147;-52
2024/01/01 04:50:25;;;;;;;2.00;0.75;;;17.80;69.70;;;;;;4908925;27;45447;-52
2024/01/01 04:53:03;;;;;;;3.05;0.75;;;17.80;68.40;;;;;;4912560;27;45408;-52
2024/01/01 04:55:43;;;;;;;4.38;1.10;;;17.70;68.70;;;;;;4903057;27;45455;-52
2024/01/01 04:58:23;;;;;;;1.48;0.80;;;17.70;69.00;;;;;;4942934;27;45884;-51
2024/01/01 05:01:12;;;;;;;2.92;0.95;;;17.80;69.50;;;;;;4917004;27;45233;-52
2024/01/01 05:04:03;;;;;;;4.03;1.17;;;17.80;69.50;;;;;;4913626;27;45540;-52
2024/01/01 05:06:45;;;;;;;3.40;1.35;;;17.80;69.40;;;;;;4911091;27;45592;-52
2024/01/01 05:09:23;;;;;;;3.58;1.05;;;17.80;69.10;;;;;;4904353;27;46922;-51
2024/01/01 05:11:50;;;;;;;4.32;1.20;;;17.80;68.80;;;;;;4918411;27;45669;-52
2024/01/01 05:14:39;;;;;;;4.40;1.65;;;17.80;69.30;;;;;;4920951;27;45259;-51
2024/01/01 05:17:33;;;;;;;3.65;0.90;;;17.80;68.60;;;;;;4940785;27;45451;-51
2024/01/01 05:20:20;;;;;;;3.17;1.20;;;17.80;69.20;;;;;;4935545;27;45226;-52
2024/01/01 05:23:15;;;;;;;3.03;0.90;;;17.80;68.60;;;;;;4907863;27;45353;-52
2024/01/01 05:26:14;;;;;;;3.35;1.08;;;17.80;68.50;;;;;;4889422;27;45347;-51
2024/01/01 05:29:07;;;;;;;2.63;1.13;;;17.80;68.70;;;;;;4896208;27;45223;-52
2024/01/01 05:31:55;;;;;;;4.15;1.30;;;17.80;69.00;;;;;;4904742;27;45373;-52
2024/01/01 05:34:52;;;;;;;4.75;1.23;;;17.80;69.10;;;;;;4914778;27;45434;-51
2024/01/01 05:37:19;;;;;;;4.57;1.10;;;17.70;69.30;;;;;;4892766;27;45390;-51
2024/01/01 05:39:54;;;;;;;4.22;1.35;;;17.70;68.70;;;;;;4895125;27;44887;-52
2024/01/01 05:42:36;;;;;;;3.63;1.30;;;17.70;68.10;;;;;;4884396;27;45533;-52
2024/01/01 05:45:25;;;;;;;4.60;1.10;;;17.70;66.80;;;;;;4889770;27;45451;-52
2024/01/01 05:48:08;;;;;;;2.38;1.08;;;17.70;66.10;;;;;;4910435;27;45246;-51
2024/01/01 05:50:37;;;;;;;2.97;0.88;;;17.60;66.30;;;;;;4897164;27;45300;-52
2024/01/01 05:53:10;;;;;;;5.03;1.30;;;17.70;66.50;;;;;;4888359;27;48614;-52
2024/01/01 05:56:11;;;;;;;2.85;0.70;;;17.60;65.50;;;;;;4887159;27;45482;-52
2024/01/01 05:59:29;;;;;;;3.13;1.25;;;17.70;66.80;;;;;;4874841;27;45058;-52
2024/01/01 06:02:28;;;;;;;2.97;0.90;;;17.70;67.70;;;;;;4930883;27;45406;-51
2024/01/01 06:05:10;;;;;;;3.47;1.08;;;17.70;67.60;;;;;;4899098;27;47127;-51
2024/01/01 06:44:20;;;;;;;2.88;0.93;;;17.70;68.70;;;;;;5586309;22;13542344;-51
2024/01/01 06:47:15;;;;;;;5.10;1.13;;;17.80;68.10;;;;;;6010579;22;45478;-51
2024/01/01 06:50:04;;;;;;;4.80;1.15;;;17.80;68.20;;;;;;5972296;22;45651;-51
2024/01/01 06:53:00;;;;;;;3.65;1.10;;;17.80;67.90;;;;;;5973363;22;45465;-51
2024/01/01 06:55:46;;;;;;;3.38;1.15;;;17.80;68.20;;;;;;5990771;22;44802;-51
2024/01/01 06:58:26;;;;;;;3.60;1.08;;;17.80;68.00;;;;;;5980000;22;45437;-51
2024/01/01 07:00:55;;;;;;;3.17;0.88;;;17.80;67.80;;;;;;5964006;22;45257;-51
2024/01/01 07:03:49;;;;;;;2.35;0.85;;;17.80;68.10;;;;;;6007957;22;45221;-51
2024/01/01 07:09:52;;;;;;;3.22;0.77;;;17.90;67.80;;;;;;5901409;22;45378;-51
2024/01/01 07:12:54;;;;;;;2.65;0.70;;;17.80;67.50;;;;;;5996013;22;45394;-51
2024/01/01 07:15:39;;;;;;;2.42;0.90;;;17.80;67.90;;;;;;5978685;22;45796;-51
2024/01/01 07:18:22;;;;;;;3.08;1.30;;;17.80;68.20;;;;;;5973069;22;44892;-51
2024/01/01 07:20:50;;;;;;;3.28;1.10;;;17.80;68.60;;;;;;5982601;22;45477;-52
2024/01/01 07:23:43;;;;;;;2.95;0.90;;;17.70;68.30;;;;;;5956895;22;46078;-51
2024/01/01 07:26:16;;;;;;;4.78;1.02;;;17.70;68.40;;;;;;5971488;22;45306;-52
2024/01/01 07:29:06;;;;;;;2.20;1.10;;;17.70;68.30;;;;;;5974581;22;45281;-51
2024/01/01 07:32:08;;;;;;;3.63;1.10;;;17.70;68.70;;;;;;6028385;22;45434;-51
2024/01/01 07:34:58;;;;;;;3.78;0.95;;;17.70;68.60;;;;;;5973048;22;45210;-51
2024/01/01 07:37:38;;;;;;;2.88;0.90;;;17.70;68.10;;;;;;5953919;22;45401;-51
2024/01/01 07:40:19;;;;;;;3.70;1.15;;;17.80;67.80;;;;;;5941391;22;45246;-51
2024/01/01 07:43:07;;;;;;;3.13;0.98;;;17.80;68.00;;;;;;5972416;22;45416;-51
2024/01/01 07:45:56;;;;;;;1.85;0.70;;;17.80;67.50;;;;;;5961732;22;46098;-51
2024/01/01 07:48:44;;;;;;;3.28;1.00;;;17.80;67.70;;;;;;5940314;22;45200;-51
2024/01/01 07:53:53;;;;;;;4.85;1.00;;;17.80;67.30;;;;;;5940765;22;45150;-51
2024/01/01 07:57:10;;;;;;;2.10;0.80;;;17.80;67.40;;;;;;5962967;22;47192;-51
2024/01/01 07:59:39;;;;;;;2.30;0.88;;;17.80;68.00;;;;;;5927218;22;45375;-52
2024/01/01 08:02:45;;;;;;;2.85;0.70;;;17.80;68.30;;;;;;5960099;22;45404;-51
2024/01/01 08:05:12;;;;;;;2.13;0.80;;;17.80;67.40;;;;;;5965118;22;45122;-51
2024/01/01 08:07:51;;;;;;;2.03;0.93;;;17.80;68.40;;;;;;5953597;22;45405;-52
2024/01/01 08:10:45;;;;;;;0.95;0.50;;;17.80;67.90;;;;;;5952672;22;45331;-51
2024/01/01 08:13:17;;;;;;;2.28;0.50;;;17.80;68.20;;;;;;5940939;22;45204;-52
2024/01/01 08:15:48;;;;;;;0.80;0.50;;;17.80;68.10;;;;;;5928650;22;45045;-52
2024/01/01 08:18:34;;;;;;;1.95;0.70;;;17.70;67.70;;;;;;5967609;22;45411;-51
2024/01/01 08:21:06;;;;;;;3.20;1.00;;;17.70;67.80;;;;;;5931419;22;45379;-51
2024/01/01 08:23:53;;;;;;;1.50;0.70;;;17.70;67.80;;;;;;5942324;22;45213;-52
2024/01/01 08:26:53;;;;;;;2.30;1.10;;;17.80;68.30;;;;;;5974899;22;45301;-51
2024/01/01 08:32:00;;;;;;;1.77;0.68;;;17.80;68.50;;;;;;5937544;22;45370;-52
2024/01/01 08:34:48;;;;;;;1.80;0.50;;;17.70;67.90;;;;;;5935925;22;45313;-51
2024/01/01 08:37:37;;;;;;;2.60;0.88;;;17.70;68.40;;;;;;5957782;22;45356;-51
2024/01/01 08:40:27;;;;;;;2.63;0.63;;;17.70;68.60;;;;;;5927710;22;45399;-52
2024/01/01 08:42:54;;;;;;;2.90;0.50;;;17.70;69.30;;;;;;5931167;22;45223;-52
2024/01/01 08:45:23;;;;;;;3.17;0.77;;;17.70;69.00;;;;;;5978857;22;45192;-52
2024/01/01 08:48:21;;;;;;;2.05;0.70;;;17.70;68.90;;;;;;5961979;22;45349;-51
2024/01/01 08:51:23;;;;;;;1.55;0.57;;;17.70;68.80;;;;;;5970463;22;45443;-51
2024/01/01 08:53:59;;;;;;;2.53;0.82;;;17.70;68.70;;;;;;5979629;22;45490;-52
2024/01/01 08:56:32;;;;;;;1.20;0.57;;;17.70;68.50;;;;;;5985158;22;45001;-52
2024/01/01 08:59:00;;;;;;;1.13;0.52;;;17.70;67.90;;;;;;5967644;22;45678;-52
2024/01/01 09:01:40;;;;;;;3.38;0.70;;;17.70;68.10;;;;;;5959976;22;45916;-51
2024/01/01 09:04:29;;;;;;;1.08;0.52;;;17.70;68.50;;;;;;5993610;22;45353;-51
2024/01/01 09:07:20;;;;;;;1.67;0.40;;;17.70;68.40;;;;;;5981032;22;45306;-51
2024/01/01 09:09:49;;;;;;;0.88;0.30;;;17.70;68.80;;;;;;5958380;22;45187;-52
2024/01/01 09:12:31;;;;;;;2.45;0.70;;;17.60;68.10;;;;;;5959784;22;47332;-51
2024/01/01 09:14:58;;;;;;;1.42;0.52;;;17.60;67.90;;;;;;6231125;22;45059;-51
2024/01/01 09:17:25;;;;;;;1.45;0.65;;;17.60;68.50;;;;;;6240490;22;45043;-51
2024/01/01 09:19:53;;;;;;;1.65;0.52;;;17.70;68.30;;;;;;6240819;22;45352;-51
2024/01/01 09:22:20;;;;;;;1.73;0.52;;;17.70;68.60;;;;;;6242356;22;45205;-51
2024/01/01 09:24:47;;;;;;;2.00;0.65;;;17.70;68.50;;;;;;6240851;22;45058;-51
2024/01/01 09:27:13;;;;;;;2.38;0.52;;;17.70;68.90;;;;;;6241205;22;45146;-51
2024/01/01 09:29:41;;;;;;;1.73;0.50;;;17.70;68.60;;;;;;6238693;22;45309;-51
2024/01/01 09:32:08;;;;;;;1.48;0.50;;;17.70;69.00;;;;;;6241628;22;46610;-51
2024/01/01 09:34:35;;;;;;;1.65;0.60;;;17.70;68.30;;;;;;6240467;22;45079;-51
2024/01/01 09:37:02;;;;;;;1.63;0.40;;;17.70;68.00;;;;;;6241179;22;45014;-51
2024/01/01 09:39:28;;;;;;;2.45;0.60;;;17.70;67.90;;;;;;6240553;22;45158;-51
2024/01/01 09:41:55;;;;;;;1.05;0.40;;;17.70;67.80;;;;;;6237564;22;45429;-51
2024/01/01 09:44:22;;;;;;;1.23;0.50;;;17.70;67.80;;;;;;6236455;22;45182;-51
2024/01/01 09:46:50;;;;;;;2.60;0.70;;;17.80;67.50;;;;;;6240449;22;44587;-51
2024/01/01 09:49:17;;;;;;;2.15;0.63;;;17.70;66.90;;;;;;6241321;22;45239;-51
2024/01/01 09:51:44;;;;;;;1.40;0.60;;;17.70;66.60;;;;;;6240910;22;45461;-51
2024/01/01 09:54:10;;;;;;;3.22;0.73;;;17.70;66.10;;;;;;6242115;22;45115;-51
2024/01/01 09:56:37;;;;;;;2.00;0.50;;;17.70;65.90;;;;;;6241238;22;45067;-51
2024/01/01 09:59:04;;;;;;;1.58;0.60;;;17.70;65.80;;;;;;6241054;22;45001;-51
2024/01/01 10:01:33;;;;;;;1.05;0.45;;;17.70;66.30;;;;;;6238674;22;45221;-51
2024/01/01 10:04:03;;;;;;;2.70;0.68;;;17.70;66.10;;;;;;6241724;22;45126;-51
2024/01/01 10:06:30;;;;;;;2.55;0.70;;;17.70;66.10;;;;;;6241809;22;45165;-51
2024/01/01 10:09:06;;;;;;;1.00;0.43;;;17.70;66.20;;;;;;6240160;22;45326;-51
2024/01/01 10:11:34;;;;;;;1.38;0.50;;;17.70;65.70;;;;;;6238370;22;45514;-51
2024/01/01 10:14:04;;;;;;;1.55;0.55;;;17.70;65.20;;;;;;6241145;22;45140;-51
2024/01/01 10:16:31;;;;;;;1.58;0.50;;;17.70;65.00;;;;;;6241484;22;45169;-51
2024/01/01 10:19:01;;;;;;;3.00;1.00;;;17.70;65.10;;;;;;6240580;22;45370;-51
2024/01/01 10:21:29;;;;;;;1.83;1.10;;;17.60;66.10;;;;;;6241148;22;47082;-51
2024/01/01 10:23:56;;;;;;;3.03;0.70;;;17.60;64.00;;;;;;6240341;22;45032;-51
2024/01/01 10:26:23;;;;;;;2.88;0.70;;;17.60;63.90;;;;;;6240686;22;45288;-51
2024/01/01 10:28:50;;;;;;;0.88;0.35;;;17.60;63.70;;;;;;6242181;22;45038;-51
2024/01/01 10:31:18;;;;;;;1.50;0.50;;;17.60;63.40;;;;;;6240677;22;45394;-51
2024/01/01 10:33:49;;;;;;;2.10;0.70;;;17.60;63.60;;;;;;6241782;22;45620;-51
2024/01/01 10:36:19;;;;;;;2.20;0.82;;;17.60;63.10;;;;;;6239250;22;45078;-51
2024/01/01 10:38:50;;;;;;;2.72;0.60;;;17.60;63.20;;;;;;6240188;22;45019;-51
2024/01/01 10:41:18;;;;;;;2.50;0.90;;;17.60;63.20;;;;;;6237771;22;46540;-51
2024/01/01 10:43:47;;;;;;;2.80;0.82;;;17.60;62.90;;;;;;6240117;22;45108;-51
2024/01/01 10:46:14;;;;;;;2.00;0.57;;;17.60;62.90;;;;;;6240070;22;45012;-51
2024/01/01 10:48:42;;;;;;;1.95;0.70;;;17.60;62.60;;;;;;6240664;22;45349;-51
2024/01/01 10:51:34;;;;;;;2.85;0.85;;;17.60;62.70;;;;;;6238982;22;45220;-51
2024/01/01 10:54:28;;;;;;;2.03;0.52;;;17.60;62.20;;;;;;6239744;22;45190;-51
2024/01/01 10:57:07;;;;;;;1.75;0.70;;;17.60;62.40;;;;;;6238083;22;44580;-51
2024/01/01 10:59:40;;;;;;;4.10;1.17;;;17.60;63.00;;;;;;6240833;22;45086;-51
2024/01/01 11:02:10;;;;;;;1.63;0.70;;;17.60;62.80;;;;;;6241202;22;45205;-51
2024/01/01 11:04:37;;;;;;;3.17;0.90;;;17.60;63.10;;;;;;6242023;22;44945;-51
2024/01/01 11:07:05;;;;;;;0.80;0.50;;;17.70;63.60;;;;;;6240830;22;45081;-51
2024/01/01 11:09:36;;;;;;;3.45;0.93;;;17.70;63.70;;;;;;6241429;22;45107;-50
2024/01/01 11:12:05;;;;;;;2.63;0.80;;;17.70;64.10;;;;;;6241652;22;45154;-51
2024/01/01 11:14:34;;;;;;;3.08;0.63;;;17.70;64.70;;;;;;6240768;22;45126;-50
2024/01/01 11:17:03;;;;;;;3.40;0.88;;;17.70;64.90;;;;;;6242917;22;45079;-51
2024/01/01 11:19:37;;;;;;;4.25;0.85;;;17.70;64.80;;;;;;6243410;22;45530;-51
2024/01/01 11:22:35;;;;;;;0.98;0.65;;;17.70;65.00;;;;;;6240991;22;46189;-51
2024/01/01 11:25:03;;;;;;;2.92;0.88;;;17.70;65.40;;;;;;6243215;22;45078;-51
2024/01/01 11:27:31;;;;;;;3.20;1.02;;;17.70;65.00;;;;;;6242820;22;45166;-51
2024/01/01 11:30:01;;;;;;;3.67;1.02;;;17.70;65.20;;;;;;6240200;22;45261;-51
2024/01/01 11:32:28;;;;;;;1.73;0.40;;;17.70;65.70;;;;;;6242505;22;45437;-51
2024/01/01 11:35:05;;;;;;;1.77;0.70;;;17.70;65.20;;;;;;6242860;22;45085;-51
2024/01/01 11:37:33;;;;;;;2.80;0.63;;;17.70;64.90;;;;;;6241789;22;45111;-51
2024/01/01 11:40:01;;;;;;;3.08;0.98;;;17.70;63.60;;;;;;6241324;22;45322;-50
2024/01/01 11:42:27;;;;;;;1.23;0.60;;;17.70;63.70;;;;;;6241996;22;46287;-51
2024/01/01 11:45:09;;;;;;;3.40;0.98;;;17.70;63.70;;;;;;6242087;22;45036;-51
2024/01/01 11:47:36;;;;;;;3.60;0.80;;;17.70;64.20;;;;;;6242480;22;45124;-50
2024/01/01 11:50:03;;;;;;;3.25;0.80;;;17.70;62.80;;;;;;6242741;22;45060;-51
2024/01/01 11:52:30;;;;;;;3.95;0.93;;;17.70;62.80;;;;;;6240566;22;45205;-51
2024/01/01 11:54:58;;;;;;;2.40;0.90;;;17.70;63.30;;;;;;6241445;22;45076;-50
2024/01/01 11:57:25;;;;;;;2.83;1.05;;;17.60;63.50;;;;;;6242791;22;45169;-51
2024/01/01 11:59:52;;;;;;;2.42;0.75;;;17.70;63.50;;;;;;6241705;22;45178;-51
2024/01/01 12:02:20;;;;;;;4.35;0.80;;;17.70;63.50;;;;;;6240784;22;46530;-51
2024/01/01 12:04:48;;;;;;;3.13;0.90;;;17.70;63.50;;;;;;6242859;22;44999;-51
2024/01/01 12:07:27;;;;;;;3.53;1.05;;;17.70;63.30;;;;;;6243393;22;44977;-51
2024/01/01 12:10:07;;;;;;;2.42;0.85;;;17.70;63.40;;;;;;6241429;22;45373;-51
2024/01/01 12:12:34;;;;;;;2.63;0.90;;;17.70;62.60;;;;;;6242620;22;45405;-51
2024/01/01 12:15:11;;;;;;;3.17;1.13;;;17.70;62.40;;;;;;6242158;22;45098;-51
2024/01/01 12:17:42;;;;;;;2.47;0.80;;;17.70;62.30;;;;;;6242852;22;45179;-51
2024/01/01 12:20:10;;;;;;;2.28;0.77;;;17.70;62.60;;;;;;6242796;22;45078;-50
2024/01/01 12:22:38;;;;;;;3.08;0.90;;;17.70;62.70;;;;;;6238767;22;45184;-51
2024/01/01 12:25:06;;;;;;;1.92;0.68;;;17.70;62.80;;;;;;6241200;22;44630;-51
2024/01/01 12:27:33;;;;;;;3.95;0.88;;;17.60;62.40;;;;;;6243433;22;45004;-50
2024/01/01 12:30:00;;;;;;;3.15;0.90;;;17.70;62.60;;;;;;6240393;22;45020;-50
2024/01/01 12:32:27;;;;;;;2.90;0.80;;;17.70;62.10;;;;;;6242838;22;45115;-51
2024/01/01 12:34:54;;;;;;;2.10;0.77;;;17.70;61.60;;;;;;6243008;22;45187;-51
2024/01/01 12:37:21;;;;;;;3.00;0.88;;;17.70;61.40;;;;;;6243466;22;45267;-51
2024/01/01 12:39:50;;;;;;;3.70;1.25;;;17.60;61.60;;;;;;6241801;22;45027;-51
2024/01/01 12:42:18;;;;;;;3.30;1.00;;;17.70;61.50;;;;;;6242291;22;45103;-50
2024/01/01 12:44:45;;;;;;;4.85;0.88;;;17.70;61.70;;;;;;6241552;22;45118;-51
2024/01/01 12:47:14;;;;;;;3.83;1.00;;;17.60;61.80;;;;;;6242600;22;44647;-51
2024/01/01 12:49:40;;;;;;;2.70;0.75;;;17.60;62.20;;;;;;6241403;22;45305;-51
2024/01/01 12:52:07;;;;;;;3.85;1.10;;;17.60;61.70;;;;;;6237990;22;47938;-50
2024/01/01 12:54:34;;;;;;;2.67;0.93;;;17.60;62.10;;;;;;6242742;22;45092;-51
2024/01/01 12:57:01;;;;;;;5.45;1.25;;;17.60;61.40;;;;;;6242807;22;44590;-51
2024/01/01 12:59:30;;;;;;;3.42;1.20;;;17.70;61.50;;;;;;6240311;22;45261;-51
2024/01/01 13:01:57;;;;;;;2.97;1.00;;;17.70;61.90;;;;;;6241699;22;47399;-50
2024/01/01 13:04:25;;;;;;;3.53;0.90;;;17.70;61.70;;;;;;6242854;22;45039;-51
2024/01/01 13:06:51;;;;;;;5.75;1.20;;;17.70;61.40;;;;;;6241051;22;44653;-50
2024/01/01 13:09:18;;;;;;;4.45;1.20;;;17.70;60.90;;;;;;6243020;22;45085;-50
2024/01/01 13:11:45;;;;;;;3.75;1.15;;;17.70;61.20;;;;;;6241564;22;46533;-50
2024/01/01 13:14:12;;;;;;;4.20;1.17;;;17.70;61.20;;;;;;6241618;22;45130;-50
2024/01/01 13:16:40;;;;;;;3.47;1.23;;;17.70;61.40;;;;;;6240765;22;45107;-51
2024/01/01 13:19:07;;;;;;;4.20;0.95;;;17.60;61.00;;;;;;6242717;22;45044;-51
2024/01/01 13:21:34;;;;;;;3.30;1.20;;;17.60;61.20;;;;;;6241827;22;46503;-51
2024/01/01 13:24:01;;;;;;;3.53;1.13;;;17.60;61.20;;;;;;6241189;22;45020;-50
2024/01/01 13:26:28;;;;;;;3.03;1.23;;;17.60;60.70;;;;;;6242678;22;45143;-51
2024/01/01 13:28:55;;;;;;;3.45;1.20;;;17.60;60.20;;;;;;6242120;22;45357;-51
2024/01/01 13:31:22;;;;;;;3.10;1.20;;;17.60;60.40;;;;;;6241460;22;47439;-50
2024/01/01 13:33:50;;;;;;;4.93;1.35;;;17.60;60.30;;;;;;6240297;22;45078;-51
2024/01/01 13:36:17;;;;;;;4.07;1.60;;;17.60;60.10;;;;;;6242741;22;45221;-50
2024/01/01 13:38:44;;;;;;;4.60;1.30;;;17.60;60.40;;;;;;6240988;22;45083;-50
2024/01/01 13:41:10;;;;;;;4.00;1.40;;;17.60;60.50;;;;;;6241682;22;45060;-50
2024/01/01 13:43:38;;;;;;;4.70;1.45;;;17.60;60.50;;;;;;6241508;22;45078;-50
2024/01/01 13:46:05;;;;;;;3.78;1.42;;;17.60;60.30;;;;;;6239812;22;45135;-50
2024/01/01 13:48:31;;;;;;;5.40;1.13;;;17.70;60.20;;;;;;6242791;22;45330;-51
2024/01/01 13:51:00;;;;;;;4.13;1.60;;;17.70;60.20;;;;;;6239395;22;45232;-50
2024/01/01 13:53:28;;;;;;;4.80;1.60;;;17.70;60.30;;;;;;6240892;22;45267;-51
2024/01/01 13:55:54;;;;;;;6.15;1.70;;;17.70;60.40;;;;;;6242752;22;45068;-50
2024/01/01 13:58:21;;;;;;;7.03;1.75;;;17.70;60.10;;;;;;6242286;22;45071;-51
2024/01/01 14:00:48;;;;;;;3.75;1.30;;;17.70;60.00;;;;;;6239465;22;47051;-51
2024/01/01 14:03:16;;;;;;;4.00;1.35;;;17.70;60.00;;;;;;6242482;22;45017;-51
2024/01/01 14:05:43;;;;;;;3.75;1.35;;;17.70;59.70;;;;;;6241987;22;45254;-50
2024/01/01 14:08:11;;;;;;;8.07;1.50;;;17.70;60.20;;;;;;6242506;22;45209;-51
2024/01/01 14:10:38;;;;;;;3.65;1.23;;;17.60;60.10;;;;;;6241845;22;45215;-50
2024/01/01 14:13:05;;;;;;;5.05;1.60;;;17.60;59.70;;;;;;6240036;22;45093;-50
2024/01/01 14:15:32;;;;;;;7.45;1.60;;;17.60;59.70;;;;;;6239789;22;45107;-50
2024/01/01 14:17:58;;;;;;;3.97;1.40;;;17.60;60.70;;;;;;6242206;22;45347;-50
2024/01/01 14:20:26;;;;;;;4.82;1.67;;;17.60;59.70;;;;;;6239451;22;45096;-51
2024/01/01 14:22:53;;;;;;;4.47;1.50;;;17.60;59.10;;;;;;6239735;22;44599;-51
2024/01/01 14:25:21;;;;;;;6.75;1.77;;;17.60;59.20;;;;;;6240675;22;45046;-50
2024/01/01 14:27:48;;;;;;;7.43;1.83;;;17.60;59.40;;;;;;6242170;22;45215;-51